Latest Coastal Weather Observations for Karratha

IDW60701

Issued at 8:25 am WST Thursday 24 July 2014 (issued every 10 minutes, with the page automatically refreshed every 10 minutes)

About coastal observations | Map of coastal stations | Coastal observations for WA | Marine services | Other Formats
Station Details ID: 004083 Name: KARRATHA AERO Lat: -20.71 Lon: 116.77 Height: 5.3 m
Data from the previous 72 hours. | See also: Recent months at Karratha
Date/Time
WST
Temp

°C
Wind Pressure Rain
since 9am
mm
Weather Cloud Vis
km
Sea
Height
m
Swell
Dir
 
Speed
knots
Gust
knots
hPa Trend Height
m
Period
s
Dir
24/08:00am 15.8 SE 8 11 1019.7 - 0.0 - - 10 - - - -
24/07:30am 11.2 S 7 9 1019.4 - 0.0 - - 10 - - - -
24/07:00am 9.2 S 8 9 1019.0 - 0.0 - - 10 - - - -
24/06:30am 9.3 S 7 8 1018.6 - 0.0 - - 10 - - - -
24/06:00am 10.2 SSE 6 7 1018.2 - 0.0 - - 10 - - - -
24/05:30am 10.1 S 6 7 1017.9 - 0.0 - - 10 - - - -
24/05:00am 10.2 S 5 5 1017.8 - 0.0 - - 10 - - - -
24/04:30am 11.5 CALM 0 0 1017.7 - 0.0 - - 10 - - - -
24/04:00am 10.5 SSE 2 4 1017.6 - 0.0 - - 10 - - - -
24/03:30am 10.3 S 5 6 1017.7 - 0.0 - - 10 - - - -
24/03:00am 10.8 SSE 5 7 1017.7 - 0.0 - - 10 - - - -
24/02:30am 10.6 SSE 7 8 1017.5 - 0.0 - - 10 - - - -
24/02:00am 12.4 S 3 5 1017.5 - 0.0 - - 10 - - - -
24/01:30am 11.9 SSE 5 6 1017.6 - 0.0 - - 10 - - - -
24/01:00am 12.4 S 7 8 1017.8 - 0.0 - - 10 - - - -
24/12:30am 12.9 S 8 8 1017.9 - 0.0 - - 10 - - - -
24/12:00am 13.0 S 7 8 1017.9 - 0.0 - - 10 - - - -
 
Date/Time
WST
Temp

°C
Wind Pressure Rain
since 9am
mm
Weather Cloud Vis
km
Sea
Height
m
Swell
Dir
 
Speed
knots
Gust
knots
hPa Trend Height
m
Period
s
Dir
23/11:30pm 13.2 SSE 2 6 1018.0 - 0.0 - - 10 - - - -
23/11:00pm 14.2 SW 6 7 1018.0 - 0.0 - - 10 - - - -
23/10:30pm 14.6 WSW 6 7 1017.8 - 0.0 - - 10 - - - -
23/10:00pm 14.9 WSW 6 7 1017.8 - 0.0 - - 10 - - - -
23/09:30pm 15.4 WSW 6 7 1017.8 - 0.0 - - 10 - - - -
23/09:00pm 16.2 WSW 8 9 1017.8 - 0.0 - - 10 - - - -
23/08:30pm 16.8 SW 7 7 1017.8 - 0.0 - - 10 - - - -
23/08:00pm 18.6 W 7 8 1017.6 - 0.0 - - 10 - - - -
23/07:30pm 19.0 WSW 7 8 1017.3 - 0.0 - - 10 - - - -
23/07:00pm 19.6 W 8 9 1017.1 - 0.0 - - 10 - - - -
23/06:30pm 20.2 W 10 12 1016.8 - 0.0 - - 10 - - - -
23/06:00pm 21.1 W 9 11 1016.6 - 0.0 - - 10 - - - -
23/05:30pm 22.5 W 7 11 1016.3 - 0.0 - - 10 - - - -
23/05:00pm 24.9 SE 8 11 1016.0 - 0.0 - - 10 - - - -
23/04:30pm 25.4 SSE 8 13 1015.8 - 0.0 - - 10 - - - -
23/04:00pm 25.5 SE 7 10 1015.8 - 0.0 - - 10 - - - -
23/03:30pm 25.8 S 5 9 1015.8 - 0.0 - - 10 - - - -
23/03:00pm 26.0 S 6 11 1015.9 - 0.0 - - 10 - - - -
23/02:30pm 25.5 SSE 7 11 1016.1 - 0.0 - - 10 - - - -
23/02:00pm 24.9 S 8 13 1016.5 - 0.0 - - 10 - - - -
23/01:30pm 25.1 E 4 10 1016.8 - 0.0 - - 10 - - - -
23/01:00pm 24.7 ENE 4 7 1017.1 - 0.0 - - 10 - - - -
23/12:30pm 24.4 ESE 6 9 1017.6 - 0.0 - - 10 - - - -
23/12:00pm 23.9 ESE 7 13 1018.3 - 0.0 - - 10 - - - -
23/11:30am 23.7 ESE 11 16 1018.9 - 0.0 - - 10 - - - -
23/11:00am 23.2 ESE 12 17 1019.3 - 0.0 - - 10 - - - -
23/10:30am 22.5 SE 14 19 1019.6 - 0.0 - - 10 - - - -
23/10:00am 21.3 SE 13 17 1020.0 - 0.0 - - 10 - - - -
23/09:30am 20.9 SE 15 20 1020.1 - 0.0 - - 10 - - - -
23/09:00am 19.7 SE 16 19 1019.7 - 0.0 - - 10 - - - -
23/08:30am 18.2 SSE 12 14 1019.4 - 0.0 - - 10 - - - -
23/08:00am 15.5 S 10 13 1019.1 - 0.0 - - 10 - - - -
23/07:30am 13.7 S 9 11 1018.4 - 0.0 - - 10 - - - -
23/07:00am 12.6 S 9 11 1018.2 - 0.0 - - 10 - - - -
23/06:30am 12.4 S 9 11 1018.0 - 0.0 - - 10 - - - -
23/06:00am 13.1 S 8 10 1017.9 - 0.0 - - 10 - - - -
23/05:30am 13.3 S 9 11 1017.6 - 0.0 - - 10 - - - -
23/05:00am 13.4 S 10 12 1017.4 - 0.0 - - 10 - - - -
23/04:30am 13.3 S 10 11 1017.3 - 0.0 - - 10 - - - -
23/04:00am 13.4 S 9 11 1017.1 - 0.0 - - 10 - - - -
23/03:30am 12.6 S 10 11 1016.9 - 0.0 - - 10 - - - -
23/03:00am 12.3 S 9 10 1017.1 - 0.0 - - 10 - - - -
23/02:30am 12.2 S 10 11 1017.1 - 0.0 - - 10 - - - -
23/02:00am 12.9 S 11 12 1017.1 - 0.0 - - 10 - - - -
23/01:30am 13.2 S 10 12 1017.1 - 0.0 - - 10 - - - -
23/01:00am 13.5 S 10 11 1017.2 - 0.0 - - 10 - - - -
23/12:30am 13.7 S 10 11 1017.3 - 0.0 - - 10 - - - -
23/12:00am 13.8 S 10 11 1017.2 - 0.0 - - 10 - - - -
 
Date/Time
WST
Temp

°C
Wind Pressure Rain
since 9am
mm
Weather Cloud Vis
km
Sea
Height
m
Swell
Dir
 
Speed
knots
Gust
knots
hPa Trend Height
m
Period
s
Dir
22/11:30pm 13.6 S 10 10 1017.2 - 0.0 - - 10 - - - -
22/11:00pm 14.0 S 9 10 1017.3 - 0.0 - - 10 - - - -
22/10:30pm 14.7 S 10 11 1017.2 - 0.0 - - 10 - - - -
22/10:00pm 15.0 S 8 10 1017.3 - 0.0 - - 10 - - - -
22/09:30pm 15.0 S 9 9 1017.2 - 0.0 - - 10 - - - -
22/09:00pm 16.6 S 9 9 1016.8 - 0.0 - - 10 - - - -
22/08:30pm 16.9 SSW 8 9 1016.8 - 0.0 - - 10 - - - -
22/08:00pm 16.4 S 8 10 1016.5 - 0.0 - - 10 - - - -
22/07:30pm 19.0 S 8 9 1016.2 - 0.0 - - 10 - - - -
22/07:00pm 19.3 SSW 8 9 1015.8 - 0.0 - - 10 - - - -
22/06:30pm 21.1 SSW 10 15 1015.3 - 0.0 - - 10 - - - -
22/06:00pm 22.0 SSW 6 9 1014.9 - 0.0 - - 10 - - - -
22/05:30pm 24.7 S 8 11 1014.6 - 0.0 - - 10 - - - -
22/05:00pm 26.0 S 11 16 1014.4 - 0.0 - - 10 - - - -
22/04:30pm 26.7 S 12 16 1014.4 - 0.0 - - 10 - - - -
22/04:00pm 26.9 SSW 12 16 1014.3 - 0.0 - - 10 - - - -
22/03:30pm 27.0 SSW 12 17 1014.2 - 0.0 - - 10 - - - -
22/03:00pm 27.4 SSW 10 15 1014.5 - 0.0 - - 10 - - - -
22/02:30pm 26.9 S 9 13 1014.7 - 0.0 - - 10 - - - -
22/02:00pm 26.6 S 12 18 1015.0 - 0.0 - - 10 - - - -
22/01:30pm 26.2 S 13 17 1015.4 - 0.0 - - 10 - - - -
22/01:00pm 25.7 S 11 17 1015.8 - 0.0 - - 10 - - - -
22/12:30pm 25.4 S 11 17 1016.4 - 0.0 - - 10 - - - -
22/12:00pm 24.7 SSW 12 19 1016.9 - 0.0 - - 10 - - - -
22/11:30am 24.1 S 13 17 1017.3 - 0.0 - - 10 - - - -
22/11:00am 23.8 SSW 11 18 1017.9 - 0.0 - - 10 - - - -
22/10:30am 22.4 S 14 17 1018.2 - 0.0 - - 10 - - - -
22/10:00am 22.1 S 12 16 1018.5 - 0.0 - - 10 - - - -
22/09:30am 20.5 S 11 14 1018.8 - 0.0 - - 10 - - - -
22/09:00am 19.7 SSW 6 9 1018.8 - 4.4 - - 10 - - - -
22/08:30am 17.3 SW 7 11 1018.7 - 4.4 - - 10 - - - -
22/08:00am 16.1 WSW 6 7 1018.4 - 4.4 - - 10 - - - -
22/07:30am 13.8 SW 6 7 1018.0 - 4.4 - - 10 - - - -
22/07:00am 12.4 SW 8 9 1017.6 - 4.4 - - 10 - - - -
22/06:30am 12.2 SW 8 8 1017.4 - 4.4 - - 10 - - - -
22/06:00am 12.6 SW 8 9 1017.1 - 4.4 - - 10 - - - -
22/05:30am 12.6 SW 8 9 1016.9 - 4.4 - - 10 - - - -
22/05:00am 13.0 WSW 9 11 1016.8 - 4.4 - - 10 - - - -
22/04:30am 13.4 SW 7 8 1016.8 - 4.4 - - 10 - - - -
22/04:00am 15.0 WSW 9 11 1016.8 - 4.4 - - 10 - - - -
22/03:30am 15.4 WSW 8 9 1016.6 - 4.4 - - 10 - - - -
22/03:00am 16.0 WSW 10 11 1016.5 - 4.4 - Partly cloudy 10 - - - -
22/02:30am 16.3 WSW 9 11 1016.5 - 4.4 - Partly cloudy 10 - - - -
22/02:00am 16.1 WSW 10 11 1016.4 - 4.4 - - 10 - - - -
22/01:30am 16.1 WSW 10 12 1016.1 - 4.4 - - 10 - - - -
22/01:00am 16.3 WSW 9 11 1016.1 - 4.4 - - 10 - - - -
22/12:30am 17.2 WSW 12 14 1016.0 - 4.4 - - 10 - - - -
22/12:00am 17.9 WSW 13 16 1015.9 - 4.4 - - 10 - - - -
 
Date/Time
WST
Temp

°C
Wind Pressure Rain
since 9am
mm
Weather Cloud Vis
km
Sea
Height
m
Swell
Dir
 
Speed
knots
Gust
knots
hPa Trend Height
m
Period
s
Dir
21/11:30pm 18.1 WSW 9 11 1015.9 - 4.4 - - 10 - - - -
21/11:00pm 18.7 WSW 12 14 1016.3 - 4.4 - - 10 - - - -
21/10:30pm 18.3 WSW 9 11 1016.4 - 4.4 - - 10 - - - -
21/10:00pm 18.7 WSW 10 13 1016.5 - 4.4 - - 10 - - - -
21/09:30pm 19.0 WSW 10 13 1016.5 - 4.4 - Partly cloudy 10 - - - -
21/09:00pm 19.4 W 11 14 1016.6 - 4.4 - Partly cloudy 10 - - - -
21/08:30pm 20.0 W 6 8 1016.2 - 4.4 - Cloudy 10 - - - -
21/08:00pm 19.8 NW 2 5 1016.0 - 4.4 - Cloudy 10 - - - -
21/07:30pm 19.7 CALM 0 0 1015.7 - 4.4 - Partly cloudy 10 - - - -
21/07:00pm 19.6 ENE 3 4 1015.2 - 4.4 - Partly cloudy 10 - - - -
21/06:30pm 19.9 NNE 1 4 1014.9 - 4.4 - Partly cloudy 10 - - - -
21/06:00pm 20.5 NNE 3 5 1014.8 - 4.4 - Mostly cloudy 10 - - - -
21/05:30pm 21.4 SSE 1 5 1014.8 - 4.4 - Partly cloudy 10 - - - -
21/05:00pm 21.4 S 1 3 1014.6 - 4.4 - Partly cloudy 10 - - - -
21/04:30pm 21.5 S 4 5 1014.7 - 4.4 - Cloudy 10 - - - -
21/04:00pm 21.3 SSE 4 5 1014.5 - 4.4 - Cloudy 10 - - - -
21/03:30pm 20.9 S 4 5 1014.5 - 4.4 - Partly cloudy 10 - - - -
21/03:08pm 21.0 S 3 6 1014.5 - 4.4 - Partly cloudy 9 - - - -
21/03:00pm 20.9 S 2 3 1014.6 - 4.4 - Mostly cloudy 6 - - - -
21/02:49pm 21.1 S 1 5 1014.6 - 4.2 - Cloudy 5 - - - -
21/02:30pm 20.9 SW 4 6 1014.7 - 3.6 - Partly cloudy 10 - - - -
21/02:00pm 21.4 SSW 3 5 1015.0 - 3.6 - Cloudy 10 - - - -
21/01:30pm 21.5 S 1 4 1015.3 - 3.6 - Partly cloudy 10 - - - -
21/01:15pm 21.1 SSE 1 4 1015.5 - 3.6 - Partly cloudy 10 - - - -
21/01:00pm 21.2 SE 3 5 1015.6 - 3.6 - Partly cloudy 10 - - - -
21/12:38pm 21.0 SSE 2 5 1016.0 - 3.6 - Partly cloudy 10 - - - -
21/12:30pm 20.8 SSE 3 5 1016.1 - 3.6 - Partly cloudy 10 - - - -
21/12:05pm 20.3 S 5 6 1016.4 - 3.6 - Partly cloudy 10 - - - -
21/12:00pm 20.3 S 4 6 1016.4 - 3.6 - Cloudy 10 - - - -
21/11:59am 20.2 S 4 6 1016.4 - 3.6 - Partly cloudy 10 - - - -
21/11:31am 19.6 S 4 5 1017.0 - 3.2 - Cloudy 5 - - - -
21/11:30am 19.6 S 4 5 1017.0 - 3.0 - Cloudy 6 - - - -
21/11:29am 19.6 S 4 5 1017.0 - 3.0 - Cloudy 6 - - - -
21/11:12am 19.5 SSE 2 4 1017.3 - 2.6 - Partly cloudy 5 - - - -
21/11:00am 19.7 S 4 5 1017.4 - 2.4 - Partly cloudy 10 - - - -
21/10:48am 19.6 SSW 3 4 1017.5 - 2.4 - Partly cloudy 10 - - - -
21/10:34am 19.8 ESE 1 6 1017.6 - 2.4 - Partly cloudy 4 - - - -
21/10:30am 19.7 CALM 0 3 1017.6 - 2.2 - Partly cloudy 4 - - - -
21/10:06am 19.9 E 4 6 1017.6 - 0.2 - Partly cloudy 5 - - - -
21/10:00am 20.0 E 5 7 1017.6 - 0.0 - Partly cloudy 10 - - - -
21/09:30am 19.8 ENE 7 9 1017.4 - 0.0 - Cloudy 10 - - - -
21/09:00am 20.0 E 10 12 1017.1 - 0.0 - Cloudy 10 - - - -
21/08:30am 19.6 E 9 11 1016.9 - 0.0 - Partly cloudy 10 - - - -

Other Formats:

Comma delimited format used in spreadsheet applications
http://www.bom.gov.au/fwo/IDW60701/IDW60701.95307.axf

JavaScript Object Notation format (JSON) in row-major order
http://www.bom.gov.au/fwo/IDW60701/IDW60701.95307.json